sensor_id;sensor_type;location;lat;lon;timestamp;temperature;humidity
14946;DHT22;7567;50.916;6.900;2022-09-01T00:01:36;16.50;99.90
14946;DHT22;7567;50.916;6.900;2022-09-01T00:04:04;16.50;99.90
14946;DHT22;7567;50.916;6.900;2022-09-01T00:06:32;16.50;99.90
14946;DHT22;7567;50.916;6.900;2022-09-01T00:09:01;16.40;99.90
14946;DHT22;7567;50.916;6.900;2022-09-01T00:11:28;16.30;99.90
14946;DHT22;7567;50.916;6.900;2022-09-01T00:13:55;16.30;99.90
14946;DHT22;7567;50.916;6.900;2022-09-01T00:16:21;16.20;99.90
14946;DHT22;7567;50.916;6.900;2022-09-01T00:18:51;16.20;99.90
14946;DHT22;7567;50.916;6.900;2022-09-01T00:21:22;16.20;99.90
14946;DHT22;7567;50.916;6.900;2022-09-01T00:23:47;16.10;99.90
14946;DHT22;7567;50.916;6.900;2022-09-01T00:26:13;16.00;99.90
14946;DHT22;7567;50.916;6.900;2022-09-01T00:28:39;16.00;99.90
14946;DHT22;7567;50.916;6.900;2022-09-01T00:31:06;15.90;99.90
14946;DHT22;7567;50.916;6.900;2022-09-01T00:33:34;15.90;99.90
14946;DHT22;7567;50.916;6.900;2022-09-01T00:36:00;15.90;99.90
14946;DHT22;7567;50.916;6.900;2022-09-01T00:38:26;15.90;99.90
14946;DHT22;7567;50.916;6.900;2022-09-01T00:40:52;16.00;99.90
14946;DHT22;7567;50.916;6.900;2022-09-01T00:43:42;16.00;99.90
14946;DHT22;7567;50.916;6.900;2022-09-01T00:48:55;16.10;99.90
14946;DHT22;7567;50.916;6.900;2022-09-01T00:51:22;16.00;99.90
14946;DHT22;7567;50.916;6.900;2022-09-01T00:53:48;16.00;99.90
14946;DHT22;7567;50.916;6.900;2022-09-01T00:56:14;16.00;99.90
14946;DHT22;7567;50.916;6.900;2022-09-01T00:58:41;16.00;99.90
14946;DHT22;7567;50.916;6.900;2022-09-01T01:01:08;16.00;99.90
14946;DHT22;7567;50.916;6.900;2022-09-01T01:03:35;15.90;99.90
14946;DHT22;7567;50.916;6.900;2022-09-01T01:06:04;15.80;99.90
14946;DHT22;7567;50.916;6.900;2022-09-01T01:08:35;15.80;99.90
14946;DHT22;7567;50.916;6.900;2022-09-01T01:11:12;15.80;99.90
14946;DHT22;7567;50.916;6.900;2022-09-01T01:13:57;15.80;99.90
14946;DHT22;7567;50.916;6.900;2022-09-01T01:16:24;15.70;99.90
14946;DHT22;7567;50.916;6.900;2022-09-01T01:18:51;15.70;99.90
14946;DHT22;7567;50.916;6.900;2022-09-01T01:26:49;15.60;99.90
14946;DHT22;7567;50.916;6.900;2022-09-01T01:29:16;15.60;99.90
14946;DHT22;7567;50.916;6.900;2022-09-01T01:31:44;15.60;99.90
14946;DHT22;7567;50.916;6.900;2022-09-01T01:34:12;15.50;99.90
14946;DHT22;7567;50.916;6.900;2022-09-01T01:36:39;15.40;99.90
14946;DHT22;7567;50.916;6.900;2022-09-01T01:39:12;15.40;99.90
14946;DHT22;7567;50.916;6.900;2022-09-01T01:41:40;15.30;99.90
14946;DHT22;7567;50.916;6.900;2022-09-01T01:44:11;15.30;99.90
14946;DHT22;7567;50.916;6.900;2022-09-01T01:46:41;15.30;99.90
14946;DHT22;7567;50.916;6.900;2022-09-01T01:49:09;15.30;99.90
14946;DHT22;7567;50.916;6.900;2022-09-01T01:51:38;15.30;99.90
14946;DHT22;7567;50.916;6.900;2022-09-01T01:54:04;15.30;99.90
14946;DHT22;7567;50.916;6.900;2022-09-01T01:56:33;15.30;99.90
14946;DHT22;7567;50.916;6.900;2022-09-01T01:59:04;15.20;99.90
14946;DHT22;7567;50.916;6.900;2022-09-01T02:01:30;15.10;99.90
14946;DHT22;7567;50.916;6.900;2022-09-01T02:03:58;15.10;99.90
14946;DHT22;7567;50.916;6.900;2022-09-01T02:06:26;15.00;99.90
14946;DHT22;7567;50.916;6.900;2022-09-01T02:08:54;15.00;99.90
14946;DHT22;7567;50.916;6.900;2022-09-01T02:11:25;15.00;99.90
14946;DHT22;7567;50.916;6.900;2022-09-01T02:13:52;14.90;99.90
14946;DHT22;7567;50.916;6.900;2022-09-01T02:16:23;14.90;99.90
14946;DHT22;7567;50.916;6.900;2022-09-01T02:18:50;14.90;99.90
14946;DHT22;7567;50.916;6.900;2022-09-01T02:21:21;14.90;99.90
14946;DHT22;7567;50.916;6.900;2022-09-01T02:23:50;14.90;99.90
14946;DHT22;7567;50.916;6.900;2022-09-01T02:26:25;14.90;99.90
14946;DHT22;7567;50.916;6.900;2022-09-01T02:28:54;14.80;99.90
14946;DHT22;7567;50.916;6.900;2022-09-01T02:31:21;14.80;99.90
14946;DHT22;7567;50.916;6.900;2022-09-01T02:33:47;14.70;99.90
14946;DHT22;7567;50.916;6.900;2022-09-01T02:36:15;14.80;99.90
14946;DHT22;7567;50.916;6.900;2022-09-01T02:38:43;14.70;99.90
14946;DHT22;7567;50.916;6.900;2022-09-01T02:41:11;14.70;99.90
14946;DHT22;7567;50.916;6.900;2022-09-01T02:43:39;14.70;99.90
14946;DHT22;7567;50.916;6.900;2022-09-01T02:46:08;14.70;99.90
14946;DHT22;7567;50.916;6.900;2022-09-01T02:48:37;14.80;99.90
14946;DHT22;7567;50.916;6.900;2022-09-01T02:51:09;14.80;99.90
14946;DHT22;7567;50.916;6.900;2022-09-01T02:53:37;14.80;99.90
14946;DHT22;7567;50.916;6.900;2022-09-01T02:56:07;14.70;99.90
14946;DHT22;7567;50.916;6.900;2022-09-01T02:58:37;14.70;99.90
14946;DHT22;7567;50.916;6.900;2022-09-01T03:01:16;14.70;99.90
14946;DHT22;7567;50.916;6.900;2022-09-01T03:03:48;14.70;99.90
14946;DHT22;7567;50.916;6.900;2022-09-01T03:06:14;14.70;99.90
14946;DHT22;7567;50.916;6.900;2022-09-01T03:08:42;14.70;99.90
14946;DHT22;7567;50.916;6.900;2022-09-01T03:11:08;14.70;99.90
14946;DHT22;7567;50.916;6.900;2022-09-01T03:13:37;14.60;99.90
14946;DHT22;7567;50.916;6.900;2022-09-01T03:16:04;14.70;99.90
14946;DHT22;7567;50.916;6.900;2022-09-01T03:18:30;14.70;99.90
14946;DHT22;7567;50.916;6.900;2022-09-01T03:20:56;14.70;99.90
14946;DHT22;7567;50.916;6.900;2022-09-01T03:23:23;14.70;99.90
14946;DHT22;7567;50.916;6.900;2022-09-01T03:25:53;14.70;99.90
14946;DHT22;7567;50.916;6.900;2022-09-01T03:28:19;14.70;99.90
14946;DHT22;7567;50.916;6.900;2022-09-01T03:30:51;14.70;99.90
14946;DHT22;7567;50.916;6.900;2022-09-01T03:33:19;14.60;99.90
14946;DHT22;7567;50.916;6.900;2022-09-01T03:35:47;14.60;99.90
14946;DHT22;7567;50.916;6.900;2022-09-01T03:38:13;14.60;99.90
14946;DHT22;7567;50.916;6.900;2022-09-01T03:40:45;14.60;99.90
14946;DHT22;7567;50.916;6.900;2022-09-01T03:43:12;14.50;99.90
14946;DHT22;7567;50.916;6.900;2022-09-01T03:45:39;14.50;99.90
14946;DHT22;7567;50.916;6.900;2022-09-01T03:48:06;14.40;99.90
14946;DHT22;7567;50.916;6.900;2022-09-01T03:50:39;14.40;99.90
14946;DHT22;7567;50.916;6.900;2022-09-01T03:53:18;14.30;99.90
14946;DHT22;7567;50.916;6.900;2022-09-01T03:55:45;14.30;99.90
14946;DHT22;7567;50.916;6.900;2022-09-01T03:58:13;14.30;99.90
14946;DHT22;7567;50.916;6.900;2022-09-01T04:00:48;14.20;99.90
14946;DHT22;7567;50.916;6.900;2022-09-01T04:03:15;14.10;99.90
14946;DHT22;7567;50.916;6.900;2022-09-01T04:05:47;14.10;99.90
14946;DHT22;7567;50.916;6.900;2022-09-01T04:08:13;14.00;99.90
14946;DHT22;7567;50.916;6.900;2022-09-01T04:10:45;14.00;99.90
14946;DHT22;7567;50.916;6.900;2022-09-01T04:13:30;14.00;99.90
14946;DHT22;7567;50.916;6.900;2022-09-01T04:15:57;13.90;99.90
14946;DHT22;7567;50.916;6.900;2022-09-01T04:18:23;13.90;99.90
14946;DHT22;7567;50.916;6.900;2022-09-01T04:20:50;13.90;99.90
14946;DHT22;7567;50.916;6.900;2022-09-01T04:23:22;13.90;99.90
14946;DHT22;7567;50.916;6.900;2022-09-01T04:26:02;13.80;99.90
14946;DHT22;7567;50.916;6.900;2022-09-01T04:28:52;13.80;99.90
14946;DHT22;7567;50.916;6.900;2022-09-01T04:31:20;13.70;99.90
14946;DHT22;7567;50.916;6.900;2022-09-01T04:33:48;13.70;99.90
14946;DHT22;7567;50.916;6.900;2022-09-01T04:36:27;13.60;99.90
14946;DHT22;7567;50.916;6.900;2022-09-01T04:38:59;13.60;99.90
14946;DHT22;7567;50.916;6.900;2022-09-01T04:41:31;13.60;99.90
14946;DHT22;7567;50.916;6.900;2022-09-01T04:43:59;13.50;99.90
14946;DHT22;7567;50.916;6.900;2022-09-01T04:46:31;13.50;99.90
14946;DHT22;7567;50.916;6.900;2022-09-01T04:49:00;13.50;99.90
14946;DHT22;7567;50.916;6.900;2022-09-01T04:51:27;13.50;99.90
14946;DHT22;7567;50.916;6.900;2022-09-01T04:53:54;13.50;99.90
14946;DHT22;7567;50.916;6.900;2022-09-01T04:56:22;13.50;99.90
14946;DHT22;7567;50.916;6.900;2022-09-01T04:58:50;13.50;99.90
14946;DHT22;7567;50.916;6.900;2022-09-01T05:01:19;13.50;99.90
14946;DHT22;7567;50.916;6.900;2022-09-01T05:03:47;13.50;99.90
14946;DHT22;7567;50.916;6.900;2022-09-01T05:06:22;13.50;99.90
14946;DHT22;7567;50.916;6.900;2022-09-01T05:08:48;13.50;99.90
14946;DHT22;7567;50.916;6.900;2022-09-01T05:11:15;13.60;99.90
14946;DHT22;7567;50.916;6.900;2022-09-01T05:13:46;13.50;99.90
14946;DHT22;7567;50.916;6.900;2022-09-01T05:16:15;13.50;99.90
14946;DHT22;7567;50.916;6.900;2022-09-01T05:18:42;13.50;99.90
14946;DHT22;7567;50.916;6.900;2022-09-01T05:21:14;13.60;99.90
14946;DHT22;7567;50.916;6.900;2022-09-01T05:23:42;13.60;99.90
14946;DHT22;7567;50.916;6.900;2022-09-01T05:26:14;13.60;99.90
14946;DHT22;7567;50.916;6.900;2022-09-01T05:28:49;13.60;99.90
14946;DHT22;7567;50.916;6.900;2022-09-01T05:31:15;13.60;99.90
14946;DHT22;7567;50.916;6.900;2022-09-01T05:33:45;13.60;99.90
14946;DHT22;7567;50.916;6.900;2022-09-01T05:36:15;13.60;99.90
14946;DHT22;7567;50.916;6.900;2022-09-01T05:38:42;13.70;99.90
14946;DHT22;7567;50.916;6.900;2022-09-01T05:41:10;13.70;99.90
14946;DHT22;7567;50.916;6.900;2022-09-01T05:43:41;13.80;99.90
14946;DHT22;7567;50.916;6.900;2022-09-01T05:46:13;13.90;99.90
14946;DHT22;7567;50.916;6.900;2022-09-01T05:48:46;13.90;99.90
14946;DHT22;7567;50.916;6.900;2022-09-01T05:51:15;14.00;99.90
14946;DHT22;7567;50.916;6.900;2022-09-01T05:53:43;14.10;99.90
14946;DHT22;7567;50.916;6.900;2022-09-01T05:56:09;14.10;99.90
14946;DHT22;7567;50.916;6.900;2022-09-01T05:58:38;14.20;99.90
14946;DHT22;7567;50.916;6.900;2022-09-01T06:01:05;14.20;99.90
14946;DHT22;7567;50.916;6.900;2022-09-01T06:03:32;14.20;99.90
14946;DHT22;7567;50.916;6.900;2022-09-01T06:06:05;14.30;99.90
14946;DHT22;7567;50.916;6.900;2022-09-01T06:08:34;14.50;99.90
14946;DHT22;7567;50.916;6.900;2022-09-01T06:11:01;14.80;99.90
14946;DHT22;7567;50.916;6.900;2022-09-01T06:13:28;15.30;99.90
14946;DHT22;7567;50.916;6.900;2022-09-01T06:15:54;15.60;99.90
14946;DHT22;7567;50.916;6.900;2022-09-01T06:18:23;16.00;99.90
14946;DHT22;7567;50.916;6.900;2022-09-01T06:20:49;16.30;22.90
14946;DHT22;7567;50.916;6.900;2022-09-01T06:23:16;16.60;1.00
14946;DHT22;7567;50.916;6.900;2022-09-01T06:25:44;16.80;1.00
14946;DHT22;7567;50.916;6.900;2022-09-01T06:28:15;17.30;1.00
14946;DHT22;7567;50.916;6.900;2022-09-01T06:30:43;17.60;1.00
14946;DHT22;7567;50.916;6.900;2022-09-01T06:33:11;17.90;1.00
14946;DHT22;7567;50.916;6.900;2022-09-01T06:35:40;18.40;1.00
14946;DHT22;7567;50.916;6.900;2022-09-01T06:38:08;18.70;99.90
14946;DHT22;7567;50.916;6.900;2022-09-01T06:40:35;19.10;99.90
14946;DHT22;7567;50.916;6.900;2022-09-01T06:43:06;19.40;1.00
14946;DHT22;7567;50.916;6.900;2022-09-01T06:45:38;19.60;1.00
14946;DHT22;7567;50.916;6.900;2022-09-01T06:48:05;20.10;1.00
14946;DHT22;7567;50.916;6.900;2022-09-01T06:50:31;20.40;1.00
14946;DHT22;7567;50.916;6.900;2022-09-01T06:52:57;20.60;99.90
14946;DHT22;7567;50.916;6.900;2022-09-01T06:55:36;21.30;1.00
14946;DHT22;7567;50.916;6.900;2022-09-01T06:58:06;21.40;1.00
14946;DHT22;7567;50.916;6.900;2022-09-01T07:00:36;21.50;1.00
14946;DHT22;7567;50.916;6.900;2022-09-01T07:03:13;22.10;99.90
14946;DHT22;7567;50.916;6.900;2022-09-01T07:05:45;22.50;99.90
14946;DHT22;7567;50.916;6.900;2022-09-01T07:08:13;22.90;1.00
14946;DHT22;7567;50.916;6.900;2022-09-01T07:10:45;23.10;1.00
14946;DHT22;7567;50.916;6.900;2022-09-01T07:13:17;23.00;1.00
14946;DHT22;7567;50.916;6.900;2022-09-01T07:15:51;23.10;1.00
14946;DHT22;7567;50.916;6.900;2022-09-01T07:18:22;23.20;1.00
14946;DHT22;7567;50.916;6.900;2022-09-01T07:20:50;23.40;1.00
14946;DHT22;7567;50.916;6.900;2022-09-01T07:23:18;23.20;1.00
14946;DHT22;7567;50.916;6.900;2022-09-01T07:25:47;23.20;1.00
14946;DHT22;7567;50.916;6.900;2022-09-01T07:28:15;22.80;1.00
14946;DHT22;7567;50.916;6.900;2022-09-01T07:30:47;22.50;1.00
14946;DHT22;7567;50.916;6.900;2022-09-01T07:33:14;22.40;1.00
14946;DHT22;7567;50.916;6.900;2022-09-01T07:35:41;22.50;1.00
14946;DHT22;7567;50.916;6.900;2022-09-01T07:38:08;22.50;1.00
14946;DHT22;7567;50.916;6.900;2022-09-01T07:40:39;22.40;1.00
14946;DHT22;7567;50.916;6.900;2022-09-01T07:43:18;22.30;1.00
14946;DHT22;7567;50.916;6.900;2022-09-01T07:45:53;22.30;1.00
14946;DHT22;7567;50.916;6.900;2022-09-01T07:48:22;22.10;1.00
14946;DHT22;7567;50.916;6.900;2022-09-01T07:50:50;22.30;1.00
14946;DHT22;7567;50.916;6.900;2022-09-01T07:53:20;22.20;1.00
14946;DHT22;7567;50.916;6.900;2022-09-01T07:55:50;22.20;1.00
14946;DHT22;7567;50.916;6.900;2022-09-01T07:58:19;22.00;1.00
14946;DHT22;7567;50.916;6.900;2022-09-01T08:00:46;22.20;1.00
14946;DHT22;7567;50.916;6.900;2022-09-01T08:03:16;22.30;1.00
14946;DHT22;7567;50.916;6.900;2022-09-01T08:05:42;22.30;1.00
14946;DHT22;7567;50.916;6.900;2022-09-01T08:08:09;22.60;1.00
14946;DHT22;7567;50.916;6.900;2022-09-01T08:10:41;23.00;1.00
14946;DHT22;7567;50.916;6.900;2022-09-01T08:13:09;23.10;1.00
14946;DHT22;7567;50.916;6.900;2022-09-01T08:15:39;23.30;1.00
14946;DHT22;7567;50.916;6.900;2022-09-01T08:18:06;23.30;1.00
14946;DHT22;7567;50.916;6.900;2022-09-01T08:20:33;23.30;1.00
14946;DHT22;7567;50.916;6.900;2022-09-01T08:23:05;23.40;1.00
14946;DHT22;7567;50.916;6.900;2022-09-01T08:25:34;23.30;1.00
14946;DHT22;7567;50.916;6.900;2022-09-01T08:28:00;23.30;1.00
14946;DHT22;7567;50.916;6.900;2022-09-01T08:30:27;23.60;1.00
14946;DHT22;7567;50.916;6.900;2022-09-01T08:32:53;23.70;1.00
14946;DHT22;7567;50.916;6.900;2022-09-01T08:35:19;23.80;1.00
14946;DHT22;7567;50.916;6.900;2022-09-01T08:37:45;23.90;1.00
14946;DHT22;7567;50.916;6.900;2022-09-01T08:40:13;24.00;1.00
14946;DHT22;7567;50.916;6.900;2022-09-01T08:45:21;24.40;1.00
14946;DHT22;7567;50.916;6.900;2022-09-01T08:47:52;24.40;1.00
14946;DHT22;7567;50.916;6.900;2022-09-01T08:50:18;24.20;1.00
14946;DHT22;7567;50.916;6.900;2022-09-01T08:52:54;24.40;1.00
14946;DHT22;7567;50.916;6.900;2022-09-01T08:55:42;24.50;1.00
14946;DHT22;7567;50.916;6.900;2022-09-01T08:58:09;24.50;1.00
14946;DHT22;7567;50.916;6.900;2022-09-01T09:00:41;24.60;1.00
14946;DHT22;7567;50.916;6.900;2022-09-01T09:06:31;24.70;1.00
14946;DHT22;7567;50.916;6.900;2022-09-01T09:09:05;24.90;1.00
14946;DHT22;7567;50.916;6.900;2022-09-01T09:17:32;25.40;1.00
14946;DHT22;7567;50.916;6.900;2022-09-01T09:20:00;25.50;1.00
14946;DHT22;7567;50.916;6.900;2022-09-01T09:22:26;25.70;1.00
14946;DHT22;7567;50.916;6.900;2022-09-01T09:27:37;25.70;1.00
14946;DHT22;7567;50.916;6.900;2022-09-01T09:30:22;25.90;1.00
14946;DHT22;7567;50.916;6.900;2022-09-01T09:32:59;25.80;1.00
14946;DHT22;7567;50.916;6.900;2022-09-01T09:35:37;25.90;1.00
14946;DHT22;7567;50.916;6.900;2022-09-01T09:43:23;26.00;1.00
14946;DHT22;7567;50.916;6.900;2022-09-01T09:45:49;26.20;1.00
14946;DHT22;7567;50.916;6.900;2022-09-01T09:48:29;25.90;1.00
14946;DHT22;7567;50.916;6.900;2022-09-01T09:51:15;25.90;1.00
14946;DHT22;7567;50.916;6.900;2022-09-01T09:53:41;25.90;1.00
14946;DHT22;7567;50.916;6.900;2022-09-01T09:56:21;26.10;1.00
14946;DHT22;7567;50.916;6.900;2022-09-01T09:58:51;26.30;1.00
14946;DHT22;7567;50.916;6.900;2022-09-01T10:03:52;26.30;1.00
14946;DHT22;7567;50.916;6.900;2022-09-01T10:09:07;26.40;1.00
14946;DHT22;7567;50.916;6.900;2022-09-01T10:11:43;26.50;1.00
14946;DHT22;7567;50.916;6.900;2022-09-01T10:16:43;26.50;1.00
14946;DHT22;7567;50.916;6.900;2022-09-01T10:19:13;26.20;1.00
14946;DHT22;7567;50.916;6.900;2022-09-01T10:21:41;26.20;1.00
14946;DHT22;7567;50.916;6.900;2022-09-01T10:24:15;26.30;1.00
14946;DHT22;7567;50.916;6.900;2022-09-01T10:26:43;26.70;1.00
14946;DHT22;7567;50.916;6.900;2022-09-01T10:29:33;26.60;1.00
14946;DHT22;7567;50.916;6.900;2022-09-01T10:32:01;26.80;1.00
14946;DHT22;7567;50.916;6.900;2022-09-01T10:34:33;26.90;1.00
14946;DHT22;7567;50.916;6.900;2022-09-01T10:37:00;26.70;1.00
14946;DHT22;7567;50.916;6.900;2022-09-01T10:39:26;26.50;1.00
14946;DHT22;7567;50.916;6.900;2022-09-01T10:41:54;26.20;1.00
14946;DHT22;7567;50.916;6.900;2022-09-01T10:46:49;26.00;1.00
14946;DHT22;7567;50.916;6.900;2022-09-01T10:49:55;25.90;1.00
14946;DHT22;7567;50.916;6.900;2022-09-01T10:52:06;26.40;1.00
14946;DHT22;7567;50.916;6.900;2022-09-01T10:54:53;26.40;1.00
14946;DHT22;7567;50.916;6.900;2022-09-01T10:57:49;26.60;1.00
14946;DHT22;7567;50.916;6.900;2022-09-01T11:11:11;27.70;1.00
14946;DHT22;7567;50.916;6.900;2022-09-01T11:13:47;27.60;1.00
14946;DHT22;7567;50.916;6.900;2022-09-01T11:16:38;27.30;1.00
14946;DHT22;7567;50.916;6.900;2022-09-01T11:22:12;27.20;1.00
14946;DHT22;7567;50.916;6.900;2022-09-01T11:27:11;27.20;1.00
14946;DHT22;7567;50.916;6.900;2022-09-01T11:30:02;27.00;1.00
14946;DHT22;7567;50.916;6.900;2022-09-01T11:32:34;26.70;1.00
14946;DHT22;7567;50.916;6.900;2022-09-01T11:35:02;26.50;1.00
14946;DHT22;7567;50.916;6.900;2022-09-01T11:37:31;26.90;1.00
14946;DHT22;7567;50.916;6.900;2022-09-01T11:39:59;27.20;1.00
14946;DHT22;7567;50.916;6.900;2022-09-01T11:42:39;27.40;1.00
14946;DHT22;7567;50.916;6.900;2022-09-01T11:47:51;27.70;1.00
14946;DHT22;7567;50.916;6.900;2022-09-01T11:55:33;28.10;1.00
14946;DHT22;7567;50.916;6.900;2022-09-01T11:57:59;28.60;1.00
14946;DHT22;7567;50.916;6.900;2022-09-01T12:00:31;28.80;1.00
14946;DHT22;7567;50.916;6.900;2022-09-01T12:02:57;28.90;1.00
14946;DHT22;7567;50.916;6.900;2022-09-01T12:05:35;28.80;1.00
14946;DHT22;7567;50.916;6.900;2022-09-01T12:08:11;28.90;1.00
14946;DHT22;7567;50.916;6.900;2022-09-01T12:10:42;29.30;1.00
14946;DHT22;7567;50.916;6.900;2022-09-01T12:13:10;29.20;1.00
14946;DHT22;7567;50.916;6.900;2022-09-01T12:15:40;29.40;1.00
14946;DHT22;7567;50.916;6.900;2022-09-01T12:18:24;29.60;1.00
14946;DHT22;7567;50.916;6.900;2022-09-01T12:20:54;29.50;1.00
14946;DHT22;7567;50.916;6.900;2022-09-01T12:23:29;28.90;1.00
14946;DHT22;7567;50.916;6.900;2022-09-01T12:26:12;28.90;1.00
14946;DHT22;7567;50.916;6.900;2022-09-01T12:28:39;28.00;1.00
14946;DHT22;7567;50.916;6.900;2022-09-01T12:31:18;27.40;1.00
14946;DHT22;7567;50.916;6.900;2022-09-01T12:33:45;27.30;1.00
14946;DHT22;7567;50.916;6.900;2022-09-01T12:38:38;27.60;1.00
14946;DHT22;7567;50.916;6.900;2022-09-01T12:41:25;27.80;1.00
14946;DHT22;7567;50.916;6.900;2022-09-01T12:43:52;28.10;1.00
14946;DHT22;7567;50.916;6.900;2022-09-01T12:46:43;28.20;1.00
14946;DHT22;7567;50.916;6.900;2022-09-01T12:49:24;28.20;1.00
14946;DHT22;7567;50.916;6.900;2022-09-01T12:54:50;28.80;1.00
14946;DHT22;7567;50.916;6.900;2022-09-01T12:57:32;28.50;1.00
14946;DHT22;7567;50.916;6.900;2022-09-01T13:02:38;27.80;1.00
14946;DHT22;7567;50.916;6.900;2022-09-01T13:05:33;27.80;1.00
14946;DHT22;7567;50.916;6.900;2022-09-01T13:08:05;28.00;1.00
14946;DHT22;7567;50.916;6.900;2022-09-01T13:10:37;27.90;1.00
14946;DHT22;7567;50.916;6.900;2022-09-01T13:13:05;28.10;1.00
14946;DHT22;7567;50.916;6.900;2022-09-01T13:15:31;28.70;1.00
14946;DHT22;7567;50.916;6.900;2022-09-01T13:17:57;28.90;1.00
14946;DHT22;7567;50.916;6.900;2022-09-01T13:20:23;28.60;1.00
14946;DHT22;7567;50.916;6.900;2022-09-01T13:22:49;28.60;1.00
14946;DHT22;7567;50.916;6.900;2022-09-01T13:25:17;28.60;1.00
14946;DHT22;7567;50.916;6.900;2022-09-01T13:27:44;28.50;1.00
14946;DHT22;7567;50.916;6.900;2022-09-01T13:30:14;28.80;1.00
14946;DHT22;7567;50.916;6.900;2022-09-01T13:32:42;28.90;1.00
14946;DHT22;7567;50.916;6.900;2022-09-01T13:35:10;28.90;1.00
14946;DHT22;7567;50.916;6.900;2022-09-01T13:37:35;28.90;1.00
14946;DHT22;7567;50.916;6.900;2022-09-01T13:40:03;28.90;1.00
14946;DHT22;7567;50.916;6.900;2022-09-01T13:42:30;29.00;1.00
14946;DHT22;7567;50.916;6.900;2022-09-01T13:44:56;29.10;1.00
14946;DHT22;7567;50.916;6.900;2022-09-01T13:47:22;29.40;1.00
14946;DHT22;7567;50.916;6.900;2022-09-01T13:49:49;29.60;1.00
14946;DHT22;7567;50.916;6.900;2022-09-01T13:52:16;29.40;1.00
14946;DHT22;7567;50.916;6.900;2022-09-01T13:54:41;29.30;1.00
14946;DHT22;7567;50.916;6.900;2022-09-01T13:57:12;29.30;99.90
14946;DHT22;7567;50.916;6.900;2022-09-01T13:59:39;29.00;99.90
14946;DHT22;7567;50.916;6.900;2022-09-01T14:02:06;29.00;1.00
14946;DHT22;7567;50.916;6.900;2022-09-01T14:04:32;29.40;99.90
14946;DHT22;7567;50.916;6.900;2022-09-01T14:06:58;29.50;99.90
14946;DHT22;7567;50.916;6.900;2022-09-01T14:09:24;29.70;99.90
14946;DHT22;7567;50.916;6.900;2022-09-01T14:11:54;29.80;99.90
14946;DHT22;7567;50.916;6.900;2022-09-01T14:14:20;29.90;99.90
14946;DHT22;7567;50.916;6.900;2022-09-01T14:16:46;29.70;99.90
14946;DHT22;7567;50.916;6.900;2022-09-01T14:19:12;29.60;99.90
14946;DHT22;7567;50.916;6.900;2022-09-01T14:21:38;29.60;99.90
14946;DHT22;7567;50.916;6.900;2022-09-01T14:24:05;29.40;99.90
14946;DHT22;7567;50.916;6.900;2022-09-01T14:26:30;29.10;99.90
14946;DHT22;7567;50.916;6.900;2022-09-01T14:28:56;28.90;99.90
14946;DHT22;7567;50.916;6.900;2022-09-01T14:31:23;28.90;99.90
14946;DHT22;7567;50.916;6.900;2022-09-01T14:33:49;29.00;99.90
14946;DHT22;7567;50.916;6.900;2022-09-01T14:36:20;29.10;99.90
14946;DHT22;7567;50.916;6.900;2022-09-01T14:38:47;29.40;99.90
14946;DHT22;7567;50.916;6.900;2022-09-01T14:41:15;29.20;99.90
14946;DHT22;7567;50.916;6.900;2022-09-01T14:43:41;29.20;99.90
14946;DHT22;7567;50.916;6.900;2022-09-01T14:46:09;29.30;99.90
14946;DHT22;7567;50.916;6.900;2022-09-01T14:48:37;29.50;99.90
14946;DHT22;7567;50.916;6.900;2022-09-01T14:51:04;29.50;99.90
14946;DHT22;7567;50.916;6.900;2022-09-01T14:53:31;29.50;99.90
14946;DHT22;7567;50.916;6.900;2022-09-01T14:55:57;29.40;99.90
14946;DHT22;7567;50.916;6.900;2022-09-01T14:58:24;29.50;99.90
14946;DHT22;7567;50.916;6.900;2022-09-01T15:00:51;29.40;99.90
14946;DHT22;7567;50.916;6.900;2022-09-01T15:03:19;29.30;99.90
14946;DHT22;7567;50.916;6.900;2022-09-01T15:05:45;29.30;99.90
14946;DHT22;7567;50.916;6.900;2022-09-01T15:08:11;29.40;99.90
14946;DHT22;7567;50.916;6.900;2022-09-01T15:10:39;29.60;99.90
14946;DHT22;7567;50.916;6.900;2022-09-01T15:13:05;29.70;99.90
14946;DHT22;7567;50.916;6.900;2022-09-01T15:15:31;29.90;99.90
14946;DHT22;7567;50.916;6.900;2022-09-01T15:17:58;29.60;99.90
14946;DHT22;7567;50.916;6.900;2022-09-01T15:20:25;29.20;99.90
14946;DHT22;7567;50.916;6.900;2022-09-01T15:23:18;29.10;99.90
14946;DHT22;7567;50.916;6.900;2022-09-01T15:25:46;29.10;99.90
14946;DHT22;7567;50.916;6.900;2022-09-01T15:28:12;29.10;99.90
14946;DHT22;7567;50.916;6.900;2022-09-01T15:30:38;29.00;99.90
14946;DHT22;7567;50.916;6.900;2022-09-01T15:33:05;29.20;99.90
14946;DHT22;7567;50.916;6.900;2022-09-01T15:35:32;29.40;99.90
14946;DHT22;7567;50.916;6.900;2022-09-01T15:37:58;29.50;99.90
14946;DHT22;7567;50.916;6.900;2022-09-01T15:40:25;29.80;99.90
14946;DHT22;7567;50.916;6.900;2022-09-01T15:42:51;29.90;99.90
14946;DHT22;7567;50.916;6.900;2022-09-01T15:45:20;30.00;99.90
14946;DHT22;7567;50.916;6.900;2022-09-01T15:47:46;29.90;99.90
14946;DHT22;7567;50.916;6.900;2022-09-01T15:50:18;29.70;99.90
14946;DHT22;7567;50.916;6.900;2022-09-01T15:52:57;29.90;99.90
14946;DHT22;7567;50.916;6.900;2022-09-01T15:55:29;29.80;99.90
14946;DHT22;7567;50.916;6.900;2022-09-01T15:57:57;29.80;99.90
14946;DHT22;7567;50.916;6.900;2022-09-01T16:00:27;29.90;99.90
14946;DHT22;7567;50.916;6.900;2022-09-01T16:02:54;30.10;99.90
14946;DHT22;7567;50.916;6.900;2022-09-01T16:05:22;30.30;99.90
14946;DHT22;7567;50.916;6.900;2022-09-01T16:07:51;30.10;99.90
14946;DHT22;7567;50.916;6.900;2022-09-01T16:10:17;30.20;99.90
14946;DHT22;7567;50.916;6.900;2022-09-01T16:12:44;30.30;99.90
14946;DHT22;7567;50.916;6.900;2022-09-01T16:15:15;30.40;99.90
14946;DHT22;7567;50.916;6.900;2022-09-01T16:20:27;30.30;99.90
14946;DHT22;7567;50.916;6.900;2022-09-01T16:23:20;30.10;99.90
14946;DHT22;7567;50.916;6.900;2022-09-01T16:25:47;29.80;99.90
14946;DHT22;7567;50.916;6.900;2022-09-01T16:28:27;29.50;99.90
14946;DHT22;7567;50.916;6.900;2022-09-01T16:31:00;29.40;99.90
14946;DHT22;7567;50.916;6.900;2022-09-01T16:33:26;29.40;99.90
14946;DHT22;7567;50.916;6.900;2022-09-01T16:38:36;29.20;99.90
14946;DHT22;7567;50.916;6.900;2022-09-01T16:44:12;29.60;99.90
14946;DHT22;7567;50.916;6.900;2022-09-01T16:47:01;29.40;99.90
14946;DHT22;7567;50.916;6.900;2022-09-01T16:49:38;29.40;99.90
14946;DHT22;7567;50.916;6.900;2022-09-01T16:52:26;29.20;99.90
14946;DHT22;7567;50.916;6.900;2022-09-01T16:55:16;29.10;99.90
14946;DHT22;7567;50.916;6.900;2022-09-01T17:01:07;28.90;99.90
14946;DHT22;7567;50.916;6.900;2022-09-01T17:03:53;28.60;99.90
14946;DHT22;7567;50.916;6.900;2022-09-01T17:06:29;28.40;99.90
14946;DHT22;7567;50.916;6.900;2022-09-01T17:09:09;28.10;99.90
14946;DHT22;7567;50.916;6.900;2022-09-01T17:11:48;27.70;99.90
14946;DHT22;7567;50.916;6.900;2022-09-01T17:14:32;27.60;99.90
14946;DHT22;7567;50.916;6.900;2022-09-01T17:17:07;27.50;99.90
14946;DHT22;7567;50.916;6.900;2022-09-01T17:19:33;26.90;99.90
14946;DHT22;7567;50.916;6.900;2022-09-01T17:22:06;26.50;99.90
14946;DHT22;7567;50.916;6.900;2022-09-01T17:24:36;26.00;99.90
14946;DHT22;7567;50.916;6.900;2022-09-01T17:27:13;25.60;99.90
14946;DHT22;7567;50.916;6.900;2022-09-01T17:29:47;25.30;1.00
14946;DHT22;7567;50.916;6.900;2022-09-01T17:35:30;24.60;1.00
14946;DHT22;7567;50.916;6.900;2022-09-01T17:43:19;24.10;1.00